sensor_id;sensor_type;location;lat;lon;timestamp;pressure;altitude;pressure_sealevel;temperature;humidity
36664;BME280;53333;51.976;20.144;2023-02-02T00:02:15;98942.47;;;3.45;72.46
36664;BME280;53333;51.976;20.144;2023-02-02T00:04:48;98939.78;;;3.47;72.35
36664;BME280;53333;51.976;20.144;2023-02-02T00:07:24;98933.56;;;3.48;72.52
36664;BME280;53333;51.976;20.144;2023-02-02T00:09:59;98928.34;;;3.46;72.41
36664;BME280;53333;51.976;20.144;2023-02-02T00:12:32;98930.25;;;3.42;72.31
36664;BME280;53333;51.976;20.144;2023-02-02T00:15:06;98933.00;;;3.39;72.25
36664;BME280;53333;51.976;20.144;2023-02-02T00:17:40;98943.56;;;3.39;72.27
36664;BME280;53333;51.976;20.144;2023-02-02T00:20:14;98936.13;;;3.49;71.97
36664;BME280;53333;51.976;20.144;2023-02-02T00:22:49;98939.16;;;3.40;72.08
36664;BME280;53333;51.976;20.144;2023-02-02T00:25:22;98934.78;;;3.39;72.18
36664;BME280;53333;51.976;20.144;2023-02-02T00:27:58;98937.38;;;3.40;72.27
36664;BME280;53333;51.976;20.144;2023-02-02T00:30:33;98934.66;;;3.42;72.17
36664;BME280;53333;51.976;20.144;2023-02-02T00:33:06;98939.94;;;3.42;72.21
36664;BME280;53333;51.976;20.144;2023-02-02T00:35:40;98930.31;;;3.41;72.36
36664;BME280;53333;51.976;20.144;2023-02-02T00:38:19;98931.16;;;3.41;72.63
36664;BME280;53333;51.976;20.144;2023-02-02T00:40:52;98926.81;;;3.40;72.49
36664;BME280;53333;51.976;20.144;2023-02-02T00:43:25;98926.81;;;3.40;72.36
36664;BME280;53333;51.976;20.144;2023-02-02T00:46:01;98930.34;;;3.39;72.45
36664;BME280;53333;51.976;20.144;2023-02-02T00:48:39;98936.53;;;3.40;72.48
36664;BME280;53333;51.976;20.144;2023-02-02T00:51:12;98928.66;;;3.38;72.51
36664;BME280;53333;51.976;20.144;2023-02-02T00:53:47;98929.50;;;3.39;72.55
36664;BME280;53333;51.976;20.144;2023-02-02T00:56:20;98941.03;;;3.36;72.72
36664;BME280;53333;51.976;20.144;2023-02-02T00:58:53;98928.72;;;3.37;72.78
36664;BME280;53333;51.976;20.144;2023-02-02T01:01:26;98934.00;;;3.37;72.76
36664;BME280;53333;51.976;20.144;2023-02-02T01:03:59;98926.97;;;3.36;72.82
36664;BME280;53333;51.976;20.144;2023-02-02T01:06:32;98918.22;;;3.35;72.87
36664;BME280;53333;51.976;20.144;2023-02-02T01:09:06;98924.47;;;3.33;72.95
36664;BME280;53333;51.976;20.144;2023-02-02T01:11:40;98927.09;;;3.33;72.91
36664;BME280;53333;51.976;20.144;2023-02-02T01:14:13;98930.59;;;3.33;72.93
36664;BME280;53333;51.976;20.144;2023-02-02T01:16:46;98927.03;;;3.34;72.99
36664;BME280;53333;51.976;20.144;2023-02-02T01:19:19;98928.88;;;3.32;72.96
36664;BME280;53333;51.976;20.144;2023-02-02T01:21:52;98921.88;;;3.31;72.98
36664;BME280;53333;51.976;20.144;2023-02-02T01:24:26;98927.22;;;3.30;73.08
36664;BME280;53333;51.976;20.144;2023-02-02T01:26:59;98934.34;;;3.27;73.10
36664;BME280;53333;51.976;20.144;2023-02-02T01:29:33;98933.06;;;3.38;72.70
36664;BME280;53333;51.976;20.144;2023-02-02T01:32:07;98930.75;;;3.28;72.95
36664;BME280;53333;51.976;20.144;2023-02-02T01:34:40;98931.72;;;3.27;72.83
36664;BME280;53333;51.976;20.144;2023-02-02T01:37:14;98930.81;;;3.27;73.15
36664;BME280;53333;51.976;20.144;2023-02-02T01:39:49;98927.34;;;3.26;73.13
36664;BME280;53333;51.976;20.144;2023-02-02T01:42:22;98927.34;;;3.26;73.31
36664;BME280;53333;51.976;20.144;2023-02-02T01:47:42;98925.38;;;3.32;73.39
36664;BME280;53333;51.976;20.144;2023-02-02T01:50:18;98917.34;;;3.35;73.19
36664;BME280;53333;51.976;20.144;2023-02-02T01:52:55;98909.28;;;3.38;73.24
36664;BME280;53333;51.976;20.144;2023-02-02T01:55:32;98920.59;;;3.41;73.32
36664;BME280;53333;51.976;20.144;2023-02-02T01:58:08;98918.84;;;3.42;73.27
36664;BME280;53333;51.976;20.144;2023-02-02T02:00:43;98924.00;;;3.45;73.23
36664;BME280;53333;51.976;20.144;2023-02-02T02:03:20;98910.72;;;3.47;73.66
36664;BME280;53333;51.976;20.144;2023-02-02T02:05:55;98902.69;;;3.50;73.32
36664;BME280;53333;51.976;20.144;2023-02-02T02:08:30;98904.38;;;3.51;73.29
36664;BME280;53333;51.976;20.144;2023-02-02T02:11:07;98906.00;;;3.55;73.37
36664;BME280;53333;51.976;20.144;2023-02-02T02:13:40;98911.16;;;3.58;73.05
36664;BME280;53333;51.976;20.144;2023-02-02T02:16:42;98912.75;;;3.62;73.13
36664;BME280;53333;51.976;20.144;2023-02-02T02:19:50;98922.28;;;3.66;73.06
36664;BME280;53333;51.976;20.144;2023-02-02T02:23:06;98928.28;;;3.70;73.02
36664;BME280;53333;51.976;20.144;2023-02-02T02:26:19;98912.38;;;3.71;72.78
36664;BME280;53333;51.976;20.144;2023-02-02T02:29:31;98914.16;;;3.71;72.93
36664;BME280;53333;51.976;20.144;2023-02-02T02:32:23;98911.59;;;3.69;72.66
36664;BME280;53333;51.976;20.144;2023-02-02T02:35:03;98922.09;;;3.71;72.90
36664;BME280;53333;51.976;20.144;2023-02-02T02:37:45;98922.03;;;3.72;72.86
36664;BME280;53333;51.976;20.144;2023-02-02T02:40:23;98919.41;;;3.72;72.90
36664;BME280;53333;51.976;20.144;2023-02-02T02:43:03;98915.81;;;3.73;72.80
36664;BME280;53333;51.976;20.144;2023-02-02T02:45:38;98921.09;;;3.73;72.64
36664;BME280;53333;51.976;20.144;2023-02-02T02:48:15;98916.63;;;3.75;72.82
36664;BME280;53333;51.976;20.144;2023-02-02T02:50:48;98926.31;;;3.75;72.63
36664;BME280;53333;51.976;20.144;2023-02-02T02:53:23;98925.41;;;3.76;72.71
36664;BME280;53333;51.976;20.144;2023-02-02T02:56:10;98928.84;;;3.78;72.69
36664;BME280;53333;51.976;20.144;2023-02-02T02:58:49;98920.06;;;3.77;72.76
36664;BME280;53333;51.976;20.144;2023-02-02T03:01:30;98925.34;;;3.77;72.74
36664;BME280;53333;51.976;20.144;2023-02-02T03:04:11;98928.84;;;3.78;72.57
36664;BME280;53333;51.976;20.144;2023-02-02T03:06:51;98926.13;;;3.79;72.52
36664;BME280;53333;51.976;20.144;2023-02-02T03:09:27;98934.94;;;3.80;72.65
36664;BME280;53333;51.976;20.144;2023-02-02T03:12:03;98936.63;;;3.81;72.54
36664;BME280;53333;51.976;20.144;2023-02-02T03:14:37;98932.22;;;3.81;72.36
36664;BME280;53333;51.976;20.144;2023-02-02T03:17:10;98917.72;;;3.92;72.05
36664;BME280;53333;51.976;20.144;2023-02-02T03:19:45;98938.38;;;3.82;72.15
36664;BME280;53333;51.976;20.144;2023-02-02T03:22:18;98931.34;;;3.81;72.32
36664;BME280;53333;51.976;20.144;2023-02-02T03:24:51;98937.56;;;3.80;72.30
36664;BME280;53333;51.976;20.144;2023-02-02T03:27:24;98941.91;;;3.81;72.30
36664;BME280;53333;51.976;20.144;2023-02-02T03:29:57;98935.78;;;3.80;72.22
36664;BME280;53333;51.976;20.144;2023-02-02T03:32:31;98944.56;;;3.81;72.14
36664;BME280;53333;51.976;20.144;2023-02-02T03:35:06;98945.50;;;3.80;72.30
36664;BME280;53333;51.976;20.144;2023-02-02T03:37:40;98939.28;;;3.81;72.16
36664;BME280;53333;51.976;20.144;2023-02-02T03:40:13;98939.28;;;3.81;72.26
36664;BME280;53333;51.976;20.144;2023-02-02T03:42:46;98938.31;;;3.84;72.22
36664;BME280;53333;51.976;20.144;2023-02-02T03:45:19;98933.09;;;3.82;72.05
36664;BME280;53333;51.976;20.144;2023-02-02T03:47:53;98931.28;;;3.82;72.07
36664;BME280;53333;51.976;20.144;2023-02-02T03:50:27;98935.66;;;3.84;72.11
36664;BME280;53333;51.976;20.144;2023-02-02T03:53:00;98935.72;;;3.82;71.89
36664;BME280;53333;51.976;20.144;2023-02-02T03:55:33;98939.28;;;3.81;71.90
36664;BME280;53333;51.976;20.144;2023-02-02T03:58:06;98945.50;;;3.80;71.76
36664;BME280;53333;51.976;20.144;2023-02-02T04:00:39;98941.97;;;3.79;71.62
36664;BME280;53333;51.976;20.144;2023-02-02T04:03:12;98950.72;;;3.81;71.60
36664;BME280;53333;51.976;20.144;2023-02-02T04:05:49;98941.06;;;3.80;71.81
36664;BME280;53333;51.976;20.144;2023-02-02T04:08:22;98943.66;;;3.82;71.63
36664;BME280;53333;51.976;20.144;2023-02-02T04:10:56;98941.78;;;3.84;71.51
36664;BME280;53333;51.976;20.144;2023-02-02T04:13:30;98944.31;;;3.87;71.55
36664;BME280;53333;51.976;20.144;2023-02-02T04:16:03;98936.38;;;3.87;71.39
36664;BME280;53333;51.976;20.144;2023-02-02T04:18:37;98941.56;;;3.90;71.37
36664;BME280;53333;51.976;20.144;2023-02-02T04:21:15;98939.63;;;3.94;71.30
36664;BME280;53333;51.976;20.144;2023-02-02T04:23:51;98942.28;;;3.94;71.24
36664;BME280;53333;51.976;20.144;2023-02-02T04:26:24;98939.56;;;3.95;71.06
36664;BME280;53333;51.976;20.144;2023-02-02T04:28:57;98934.28;;;3.95;71.19
36664;BME280;53333;51.976;20.144;2023-02-02T04:31:30;98929.00;;;3.95;71.13
36664;BME280;53333;51.976;20.144;2023-02-02T04:34:03;98934.16;;;3.98;71.13
36664;BME280;53333;51.976;20.144;2023-02-02T04:36:38;98935.00;;;4.00;71.01
36664;BME280;53333;51.976;20.144;2023-02-02T04:39:11;98931.47;;;4.00;70.90
36664;BME280;53333;51.976;20.144;2023-02-02T04:41:44;98927.06;;;4.00;70.80
36664;BME280;53333;51.976;20.144;2023-02-02T04:44:17;98928.75;;;4.02;70.77
36664;BME280;53333;51.976;20.144;2023-02-02T04:46:50;98926.06;;;4.03;70.77
36664;BME280;53333;51.976;20.144;2023-02-02T04:49:23;98924.25;;;4.04;70.72
36664;BME280;53333;51.976;20.144;2023-02-02T04:51:58;98916.34;;;4.04;70.71
36664;BME280;53333;51.976;20.144;2023-02-02T04:54:32;98926.91;;;4.04;70.59
36664;BME280;53333;51.976;20.144;2023-02-02T04:57:06;98933.91;;;4.05;70.56
36664;BME280;53333;51.976;20.144;2023-02-02T04:59:38;98926.78;;;4.07;70.58
36664;BME280;53333;51.976;20.144;2023-02-02T05:02:13;98925.88;;;4.08;70.58
36664;BME280;53333;51.976;20.144;2023-02-02T05:04:46;98918.84;;;4.07;70.35
36664;BME280;53333;51.976;20.144;2023-02-02T05:07:20;98919.84;;;4.04;70.39
36664;BME280;53333;51.976;20.144;2023-02-02T05:09:53;98917.22;;;4.04;70.50
36664;BME280;53333;51.976;20.144;2023-02-02T05:12:26;98922.50;;;4.04;70.48
36664;BME280;53333;51.976;20.144;2023-02-02T05:14:59;98916.44;;;4.02;70.45
36664;BME280;53333;51.976;20.144;2023-02-02T05:17:34;98921.72;;;4.02;70.43
36664;BME280;53333;51.976;20.144;2023-02-02T05:20:08;98918.19;;;4.02;70.35
36664;BME280;53333;51.976;20.144;2023-02-02T05:22:43;98917.41;;;3.99;70.58
36664;BME280;53333;51.976;20.144;2023-02-02T05:25:16;98912.19;;;3.98;70.67
36664;BME280;53333;51.976;20.144;2023-02-02T05:27:49;98906.09;;;3.96;70.67
36664;BME280;53333;51.976;20.144;2023-02-02T05:30:22;98908.00;;;3.92;70.76
36664;BME280;53333;51.976;20.144;2023-02-02T05:32:55;98901.78;;;3.93;70.89
36664;BME280;53333;51.976;20.144;2023-02-02T05:35:28;98895.59;;;3.94;70.91
36664;BME280;53333;51.976;20.144;2023-02-02T05:38:03;98900.88;;;3.94;70.88
36664;BME280;53333;51.976;20.144;2023-02-02T05:40:36;98887.75;;;3.93;71.01
36664;BME280;53333;51.976;20.144;2023-02-02T05:43:09;98886.84;;;3.92;70.90
36664;BME280;53333;51.976;20.144;2023-02-02T05:45:42;98882.44;;;3.93;70.92
36664;BME280;53333;51.976;20.144;2023-02-02T05:48:15;98882.44;;;3.93;71.05
36664;BME280;53333;51.976;20.144;2023-02-02T05:50:56;98879.88;;;3.91;71.21
36664;BME280;53333;51.976;20.144;2023-02-02T05:53:32;98880.91;;;3.87;71.11
36664;BME280;53333;51.976;20.144;2023-02-02T05:56:05;98886.25;;;3.86;71.31
36664;BME280;53333;51.976;20.144;2023-02-02T05:58:38;98881.91;;;3.85;71.20
36664;BME280;53333;51.976;20.144;2023-02-02T06:01:11;98877.53;;;3.84;71.32
36664;BME280;53333;51.976;20.144;2023-02-02T06:03:45;98879.41;;;3.81;71.28
36664;BME280;53333;51.976;20.144;2023-02-02T06:06:18;98873.22;;;3.81;71.48
36664;BME280;53333;51.976;20.144;2023-02-02T06:08:52;98865.38;;;3.79;71.59
36664;BME280;53333;51.976;20.144;2023-02-02T06:11:25;98868.06;;;3.78;71.67
36664;BME280;53333;51.976;20.144;2023-02-02T06:13:58;98865.56;;;3.75;71.68
36664;BME280;53333;51.976;20.144;2023-02-02T06:16:32;98857.69;;;3.73;71.79
36664;BME280;53333;51.976;20.144;2023-02-02T06:19:05;98857.69;;;3.73;71.76
36664;BME280;53333;51.976;20.144;2023-02-02T06:21:38;98853.34;;;3.72;71.81
36664;BME280;53333;51.976;20.144;2023-02-02T06:24:12;98854.22;;;3.73;71.99
36664;BME280;53333;51.976;20.144;2023-02-02T06:26:45;98852.63;;;3.69;71.92
36664;BME280;53333;51.976;20.144;2023-02-02T06:29:18;98853.66;;;3.64;72.07
36664;BME280;53333;51.976;20.144;2023-02-02T06:31:51;98844.13;;;3.60;72.01
36664;BME280;53333;51.976;20.144;2023-02-02T06:34:24;98854.91;;;3.56;72.02
36664;BME280;53333;51.976;20.144;2023-02-02T06:36:57;98840.16;;;3.50;72.04
36664;BME280;53333;51.976;20.144;2023-02-02T06:39:32;98840.28;;;3.47;72.24
36664;BME280;53333;51.976;20.144;2023-02-02T06:42:05;98841.31;;;3.43;72.26
36664;BME280;53333;51.976;20.144;2023-02-02T06:44:51;98839.56;;;3.43;72.05
36664;BME280;53333;51.976;20.144;2023-02-02T06:47:24;98835.25;;;3.41;72.24
36664;BME280;53333;51.976;20.144;2023-02-02T06:49:57;98832.69;;;3.39;72.31
36664;BME280;53333;51.976;20.144;2023-02-02T06:52:30;98827.47;;;3.38;72.39
36664;BME280;53333;51.976;20.144;2023-02-02T06:55:06;98827.53;;;3.36;72.39
36664;BME280;53333;51.976;20.144;2023-02-02T06:57:39;98832.88;;;3.35;72.43
36664;BME280;53333;51.976;20.144;2023-02-02T07:00:13;98831.16;;;3.34;72.48
36664;BME280;53333;51.976;20.144;2023-02-02T07:02:46;98820.72;;;3.31;72.43
36664;BME280;53333;51.976;20.144;2023-02-02T07:05:19;98826.84;;;3.31;72.52
36664;BME280;53333;51.976;20.144;2023-02-02T07:07:55;98824.22;;;3.31;72.47
36664;BME280;53333;51.976;20.144;2023-02-02T07:10:29;98819.91;;;3.28;72.49
36664;BME280;53333;51.976;20.144;2023-02-02T07:13:22;98815.50;;;3.29;72.40
36664;BME280;53333;51.976;20.144;2023-02-02T07:15:55;98812.03;;;3.27;72.31
36664;BME280;53333;51.976;20.144;2023-02-02T07:18:29;98806.78;;;3.27;72.47
36664;BME280;53333;51.976;20.144;2023-02-02T07:21:02;98805.81;;;3.30;72.41
36664;BME280;53333;51.976;20.144;2023-02-02T07:23:35;98807.41;;;3.34;72.58
36664;BME280;53333;51.976;20.144;2023-02-02T07:26:11;98807.34;;;3.35;72.45
36664;BME280;53333;51.976;20.144;2023-02-02T07:28:45;98802.00;;;3.37;72.50
36664;BME280;53333;51.976;20.144;2023-02-02T07:31:20;98802.84;;;3.37;72.51
36664;BME280;53333;51.976;20.144;2023-02-02T07:33:53;98806.34;;;3.38;72.50
36664;BME280;53333;51.976;20.144;2023-02-02T07:36:26;98807.41;;;3.34;72.36
36664;BME280;53333;51.976;20.144;2023-02-02T07:38:59;98805.75;;;3.31;72.47
36664;BME280;53333;51.976;20.144;2023-02-02T07:41:37;98804.13;;;3.27;72.53
36664;BME280;53333;51.976;20.144;2023-02-02T07:44:18;98817.47;;;3.24;72.80
36664;BME280;53333;51.976;20.144;2023-02-02T07:46:51;98799.97;;;3.21;72.54
36664;BME280;53333;51.976;20.144;2023-02-02T07:49:24;98805.25;;;3.21;72.56
36664;BME280;53333;51.976;20.144;2023-02-02T07:51:57;98819.34;;;3.20;72.64
36664;BME280;53333;51.976;20.144;2023-02-02T07:54:30;98816.91;;;3.16;72.56
36664;BME280;53333;51.976;20.144;2023-02-02T07:57:04;98825.00;;;3.11;72.75
36664;BME280;53333;51.976;20.144;2023-02-02T07:59:38;98820.78;;;3.07;72.72
36664;BME280;53333;51.976;20.144;2023-02-02T08:02:11;98826.22;;;3.02;72.77
36664;BME280;53333;51.976;20.144;2023-02-02T08:04:44;98818.38;;;3.01;72.83
36664;BME280;53333;51.976;20.144;2023-02-02T08:07:18;98823.66;;;3.01;72.66
36664;BME280;53333;51.976;20.144;2023-02-02T08:09:52;98825.50;;;2.99;72.70
36664;BME280;53333;51.976;20.144;2023-02-02T08:12:26;98836.06;;;2.99;72.90
36664;BME280;53333;51.976;20.144;2023-02-02T08:14:59;98840.50;;;2.97;72.96
36664;BME280;53333;51.976;20.144;2023-02-02T08:17:32;98840.50;;;2.97;72.83
36664;BME280;53333;51.976;20.144;2023-02-02T08:20:06;98837.88;;;2.97;72.96
36664;BME280;53333;51.976;20.144;2023-02-02T08:22:39;98839.19;;;3.08;72.69
36664;BME280;53333;51.976;20.144;2023-02-02T08:25:12;98839.47;;;3.01;72.70
36664;BME280;53333;51.976;20.144;2023-02-02T08:27:46;98846.53;;;3.00;72.72
36664;BME280;53333;51.976;20.144;2023-02-02T08:30:19;98850.81;;;3.03;73.04
36664;BME280;53333;51.976;20.144;2023-02-02T08:32:53;98861.16;;;3.09;73.09
36664;BME280;53333;51.976;20.144;2023-02-02T08:35:25;98856.53;;;3.14;73.16
36664;BME280;53333;51.976;20.144;2023-02-02T08:37:58;98857.44;;;3.15;73.23
36664;BME280;53333;51.976;20.144;2023-02-02T08:40:33;98861.69;;;3.17;73.27
36664;BME280;53333;51.976;20.144;2023-02-02T08:43:08;98870.50;;;3.18;73.32
36664;BME280;53333;51.976;20.144;2023-02-02T08:45:41;98877.41;;;3.20;73.33
36664;BME280;53333;51.976;20.144;2023-02-02T08:48:35;98871.97;;;3.25;73.39
36664;BME280;53333;51.976;20.144;2023-02-02T08:51:09;98887.22;;;3.40;72.94
36664;BME280;53333;51.976;20.144;2023-02-02T08:53:42;98891.75;;;3.37;72.90
36664;BME280;53333;51.976;20.144;2023-02-02T08:56:17;98899.34;;;3.44;73.22
36664;BME280;53333;51.976;20.144;2023-02-02T08:58:55;98895.69;;;3.49;73.09
36664;BME280;53333;51.976;20.144;2023-02-02T09:01:30;98898.94;;;3.55;73.07
36664;BME280;53333;51.976;20.144;2023-02-02T09:04:06;98909.19;;;3.63;73.20
36664;BME280;53333;51.976;20.144;2023-02-02T09:06:40;98914.09;;;3.72;73.41
36664;BME280;53333;51.976;20.144;2023-02-02T09:09:14;98919.56;;;3.90;72.79
36664;BME280;53333;51.976;20.144;2023-02-02T09:11:47;98920.53;;;3.87;72.83
36664;BME280;53333;51.976;20.144;2023-02-02T09:14:22;98926.44;;;3.94;72.89
36664;BME280;53333;51.976;20.144;2023-02-02T09:16:55;98930.56;;;4.01;72.86
36664;BME280;53333;51.976;20.144;2023-02-02T09:19:28;98933.84;;;4.06;72.74
36664;BME280;53333;51.976;20.144;2023-02-02T09:22:02;98939.94;;;4.08;72.83
36664;BME280;53333;51.976;20.144;2023-02-02T09:24:35;98941.53;;;4.12;72.80
36664;BME280;53333;51.976;20.144;2023-02-02T09:27:08;98949.47;;;4.12;72.73
36664;BME280;53333;51.976;20.144;2023-02-02T09:29:42;98952.88;;;4.14;72.71
36664;BME280;53333;51.976;20.144;2023-02-02T09:32:15;98953.56;;;4.19;72.52
36664;BME280;53333;51.976;20.144;2023-02-02T09:34:48;98961.41;;;4.21;72.51
36664;BME280;53333;51.976;20.144;2023-02-02T09:37:21;98962.19;;;4.25;72.63
36664;BME280;53333;51.976;20.144;2023-02-02T09:39:54;98969.91;;;4.29;72.65
36664;BME280;53333;51.976;20.144;2023-02-02T09:42:43;98977.63;;;4.34;72.51
36664;BME280;53333;51.976;20.144;2023-02-02T09:45:25;98983.75;;;4.36;72.37
36664;BME280;53333;51.976;20.144;2023-02-02T09:48:13;98997.81;;;4.36;72.26
36664;BME280;53333;51.976;20.144;2023-02-02T09:50:52;99005.00;;;4.33;72.32
36664;BME280;53333;51.976;20.144;2023-02-02T09:53:36;99012.00;;;4.34;72.37
36664;BME280;53333;51.976;20.144;2023-02-02T09:56:28;99010.31;;;4.33;72.20
36664;BME280;53333;51.976;20.144;2023-02-02T09:59:07;99020.94;;;4.31;72.32
36664;BME280;53333;51.976;20.144;2023-02-02T10:01:56;99032.31;;;4.33;72.19
36664;BME280;53333;51.976;20.144;2023-02-02T10:04:34;99020.69;;;4.38;72.07
36664;BME280;53333;51.976;20.144;2023-02-02T10:07:14;99027.63;;;4.40;72.04
36664;BME280;53333;51.976;20.144;2023-02-02T10:09:56;99033.59;;;4.45;72.06
36664;BME280;53333;51.976;20.144;2023-02-02T10:12:37;99041.47;;;4.47;72.02
36664;BME280;53333;51.976;20.144;2023-02-02T10:15:21;99050.13;;;4.50;72.07
36664;BME280;53333;51.976;20.144;2023-02-02T10:18:07;99052.59;;;4.55;71.62
36664;BME280;53333;51.976;20.144;2023-02-02T10:20:46;99061.44;;;4.54;71.73
36664;BME280;53333;51.976;20.144;2023-02-02T10:23:24;99056.94;;;4.56;71.74
36664;BME280;53333;51.976;20.144;2023-02-02T10:26:15;99066.53;;;4.59;71.68
36664;BME280;53333;51.976;20.144;2023-02-02T10:29:07;99071.44;;;4.68;71.45
36664;BME280;53333;51.976;20.144;2023-02-02T10:31:42;99067.00;;;4.68;71.62
36664;BME280;53333;51.976;20.144;2023-02-02T10:34:22;99076.63;;;4.71;71.65
36664;BME280;53333;51.976;20.144;2023-02-02T10:37:04;99080.13;;;4.71;71.54
36664;BME280;53333;51.976;20.144;2023-02-02T10:39:52;99087.91;;;4.75;71.54
36664;BME280;53333;51.976;20.144;2023-02-02T10:42:34;99094.06;;;4.75;71.58
36664;BME280;53333;51.976;20.144;2023-02-02T10:45:12;99092.25;;;4.77;71.60
36664;BME280;53333;51.976;20.144;2023-02-02T10:47:46;99097.59;;;4.76;71.54
36664;BME280;53333;51.976;20.144;2023-02-02T10:50:21;99101.09;;;4.76;71.55
36664;BME280;53333;51.976;20.144;2023-02-02T10:53:00;99108.97;;;4.78;71.41
36664;BME280;53333;51.976;20.144;2023-02-02T10:55:39;99112.34;;;4.81;71.64
36664;BME280;53333;51.976;20.144;2023-02-02T10:58:21;99116.59;;;4.85;71.50
36664;BME280;53333;51.976;20.144;2023-02-02T11:00:57;99109.44;;;4.87;71.49
36664;BME280;53333;51.976;20.144;2023-02-02T11:03:32;99122.53;;;4.90;71.29
36664;BME280;53333;51.976;20.144;2023-02-02T11:06:07;99129.97;;;5.03;70.98
36664;BME280;53333;51.976;20.144;2023-02-02T11:08:57;99127.91;;;4.89;71.09
36664;BME280;53333;51.976;20.144;2023-02-02T11:11:33;99131.59;;;4.85;71.35
36664;BME280;53333;51.976;20.144;2023-02-02T11:14:14;99132.59;;;4.82;71.42
36664;BME280;53333;51.976;20.144;2023-02-02T11:16:59;99137.00;;;4.82;71.42
36664;BME280;53333;51.976;20.144;2023-02-02T11:19:34;99133.69;;;4.77;71.65
36664;BME280;53333;51.976;20.144;2023-02-02T11:22:23;99143.25;;;4.81;71.85
36664;BME280;53333;51.976;20.144;2023-02-02T11:25:00;99146.84;;;4.78;71.85
36664;BME280;53333;51.976;20.144;2023-02-02T11:27:37;99155.69;;;4.79;71.85
36664;BME280;53333;51.976;20.144;2023-02-02T11:30:20;99155.75;;;4.77;71.88
36664;BME280;53333;51.976;20.144;2023-02-02T11:32:57;99162.06;;;4.73;71.88
36664;BME280;53333;51.976;20.144;2023-02-02T11:35:30;99171.03;;;4.69;71.90
36664;BME280;53333;51.976;20.144;2023-02-02T11:38:12;99175.59;;;4.65;71.96
36664;BME280;53333;51.976;20.144;2023-02-02T11:40:52;99169.50;;;4.63;72.18
36664;BME280;53333;51.976;20.144;2023-02-02T11:43:29;99169.56;;;4.62;72.07
36664;BME280;53333;51.976;20.144;2023-02-02T11:46:04;99183.78;;;4.59;72.10
36664;BME280;53333;51.976;20.144;2023-02-02T11:48:39;99179.50;;;4.57;72.08
36664;BME280;53333;51.976;20.144;2023-02-02T11:51:21;99187.41;;;4.57;72.14
36664;BME280;53333;51.976;20.144;2023-02-02T11:54:02;99190.00;;;4.58;72.21
36664;BME280;53333;51.976;20.144;2023-02-02T11:56:38;99201.56;;;4.55;72.09
36664;BME280;53333;51.976;20.144;2023-02-02T11:59:27;99204.03;;;4.60;72.24
36664;BME280;53333;51.976;20.144;2023-02-02T12:02:24;99212.81;;;4.61;71.89
36664;BME280;53333;51.976;20.144;2023-02-02T12:08:02;99224.63;;;4.52;72.05
36664;BME280;53333;51.976;20.144;2023-02-02T12:10:40;99223.81;;;4.50;72.15
36664;BME280;53333;51.976;20.144;2023-02-02T12:13:26;99234.38;;;4.50;72.22
36664;BME280;53333;51.976;20.144;2023-02-02T12:16:12;99249.34;;;4.51;72.22
36664;BME280;53333;51.976;20.144;2023-02-02T12:19:08;99252.00;;;4.51;72.32
36664;BME280;53333;51.976;20.144;2023-02-02T12:21:54;99261.66;;;4.52;72.33
36664;BME280;53333;51.976;20.144;2023-02-02T12:24:33;99270.38;;;4.54;72.27
36664;BME280;53333;51.976;20.144;2023-02-02T12:27:17;99273.72;;;4.59;72.32
36664;BME280;53333;51.976;20.144;2023-02-02T12:30:16;99284.91;;;4.66;72.31
36664;BME280;53333;51.976;20.144;2023-02-02T12:33:07;99280.28;;;4.72;72.29
36664;BME280;53333;51.976;20.144;2023-02-02T12:35:58;99295.03;;;4.78;71.98
36664;BME280;53333;51.976;20.144;2023-02-02T12:38:45;99294.91;;;4.81;72.19
36664;BME280;53333;51.976;20.144;2023-02-02T12:41:35;99312.41;;;4.85;72.14
36664;BME280;53333;51.976;20.144;2023-02-02T12:44:17;99309.66;;;4.88;72.01
36664;BME280;53333;51.976;20.144;2023-02-02T12:47:03;99321.03;;;4.90;72.16
36664;BME280;53333;51.976;20.144;2023-02-02T12:52:52;99322.94;;;4.87;72.12
36664;BME280;53333;51.976;20.144;2023-02-02T12:55:35;99329.16;;;4.86;71.94
36664;BME280;53333;51.976;20.144;2023-02-02T12:58:23;99344.22;;;4.84;71.90
36664;BME280;53333;51.976;20.144;2023-02-02T13:01:33;99356.56;;;4.83;71.89
36664;BME280;53333;51.976;20.144;2023-02-02T13:04:30;99338.88;;;4.85;72.10
36664;BME280;53333;51.976;20.144;2023-02-02T13:07:24;99357.31;;;5.11;71.36
36664;BME280;53333;51.976;20.144;2023-02-02T13:10:05;99367.38;;;5.46;70.95
36664;BME280;53333;51.976;20.144;2023-02-02T13:12:42;99367.59;;;6.86;69.58
36664;BME280;53333;51.976;20.144;2023-02-02T13:15:19;99373.69;;;7.81;67.84
36664;BME280;53333;51.976;20.144;2023-02-02T13:17:58;99369.34;;;7.98;67.26
36664;BME280;53333;51.976;20.144;2023-02-02T13:20:37;99386.22;;;8.32;65.98
36664;BME280;53333;51.976;20.144;2023-02-02T13:23:16;99380.97;;;8.65;64.98
36664;BME280;53333;51.976;20.144;2023-02-02T13:25:54;99388.81;;;8.51;64.66
36664;BME280;53333;51.976;20.144;2023-02-02T13:28:35;99396.13;;;8.47;63.98
36664;BME280;53333;51.976;20.144;2023-02-02T13:31:13;99391.06;;;9.25;62.42
36664;BME280;53333;51.976;20.144;2023-02-02T13:33:58;99397.75;;;9.49;62.06
36664;BME280;53333;51.976;20.144;2023-02-02T13:36:32;99401.63;;;10.51;61.81
36664;BME280;53333;51.976;20.144;2023-02-02T13:39:14;99407.22;;;10.47;60.44
36664;BME280;53333;51.976;20.144;2023-02-02T13:41:50;99403.88;;;10.27;60.20
36664;BME280;53333;51.976;20.144;2023-02-02T13:44:28;99418.19;;;9.96;59.84
36664;BME280;53333;51.976;20.144;2023-02-02T13:47:06;99428.38;;;9.57;60.11
36664;BME280;53333;51.976;20.144;2023-02-02T13:49:45;99440.63;;;9.12;60.16
36664;BME280;53333;51.976;20.144;2023-02-02T13:52:39;99451.94;;;8.66;60.78
36664;BME280;53333;51.976;20.144;2023-02-02T13:55:31;99450.78;;;8.18;61.57
36664;BME280;53333;51.976;20.144;2023-02-02T14:01:17;99463.69;;;7.53;62.06
36664;BME280;53333;51.976;20.144;2023-02-02T14:03:53;99460.09;;;7.35;62.42
36664;BME280;53333;51.976;20.144;2023-02-02T14:06:53;99459.88;;;7.20;62.68